sensor_id;sensor_type;location;lat;lon;timestamp;P1;durP1;ratioP1;P2;durP2;ratioP2
55728;SDS011;41633;39.720;2.910;2023-12-20T00:01:42;19.75;;;12.18;;
55728;SDS011;41633;39.720;2.910;2023-12-20T00:04:09;15.55;;;7.43;;
55728;SDS011;41633;39.720;2.910;2023-12-20T00:06:37;13.73;;;7.45;;
55728;SDS011;41633;39.720;2.910;2023-12-20T00:09:05;11.93;;;7.05;;
55728;SDS011;41633;39.720;2.910;2023-12-20T00:11:32;12.65;;;6.60;;
55728;SDS011;41633;39.720;2.910;2023-12-20T00:14:00;13.55;;;7.00;;
55728;SDS011;41633;39.720;2.910;2023-12-20T00:16:29;14.88;;;7.35;;
55728;SDS011;41633;39.720;2.910;2023-12-20T00:18:57;14.13;;;8.95;;
55728;SDS011;41633;39.720;2.910;2023-12-20T00:21:23;15.52;;;8.57;;
55728;SDS011;41633;39.720;2.910;2023-12-20T00:23:49;15.13;;;8.52;;
55728;SDS011;41633;39.720;2.910;2023-12-20T00:26:18;15.10;;;9.80;;
55728;SDS011;41633;39.720;2.910;2023-12-20T00:28:45;18.27;;;13.07;;
55728;SDS011;41633;39.720;2.910;2023-12-20T00:31:14;16.13;;;10.85;;
55728;SDS011;41633;39.720;2.910;2023-12-20T00:33:40;17.08;;;11.63;;
55728;SDS011;41633;39.720;2.910;2023-12-20T00:36:09;16.80;;;11.00;;
55728;SDS011;41633;39.720;2.910;2023-12-20T00:38:36;16.08;;;11.23;;
55728;SDS011;41633;39.720;2.910;2023-12-20T00:41:04;19.00;;;12.57;;
55728;SDS011;41633;39.720;2.910;2023-12-20T00:43:30;19.35;;;13.10;;
55728;SDS011;41633;39.720;2.910;2023-12-20T00:45:58;15.68;;;10.50;;
55728;SDS011;41633;39.720;2.910;2023-12-20T00:48:25;15.90;;;10.00;;
55728;SDS011;41633;39.720;2.910;2023-12-20T00:50:55;13.85;;;9.10;;
55728;SDS011;41633;39.720;2.910;2023-12-20T00:53:22;16.80;;;10.38;;
55728;SDS011;41633;39.720;2.910;2023-12-20T00:55:48;14.15;;;9.98;;
55728;SDS011;41633;39.720;2.910;2023-12-20T00:58:16;15.30;;;9.00;;
55728;SDS011;41633;39.720;2.910;2023-12-20T01:00:42;17.63;;;11.82;;
55728;SDS011;41633;39.720;2.910;2023-12-20T01:03:09;17.17;;;11.23;;
55728;SDS011;41633;39.720;2.910;2023-12-20T01:05:36;16.42;;;10.80;;
55728;SDS011;41633;39.720;2.910;2023-12-20T01:08:04;16.50;;;10.38;;
55728;SDS011;41633;39.720;2.910;2023-12-20T01:10:31;17.27;;;11.20;;
55728;SDS011;41633;39.720;2.910;2023-12-20T01:12:57;18.00;;;11.30;;
55728;SDS011;41633;39.720;2.910;2023-12-20T01:15:23;13.70;;;8.07;;
55728;SDS011;41633;39.720;2.910;2023-12-20T01:17:49;12.80;;;7.72;;
55728;SDS011;41633;39.720;2.910;2023-12-20T01:20:17;13.30;;;8.40;;
55728;SDS011;41633;39.720;2.910;2023-12-20T01:22:45;15.60;;;9.52;;
55728;SDS011;41633;39.720;2.910;2023-12-20T01:25:12;15.00;;;9.43;;
55728;SDS011;41633;39.720;2.910;2023-12-20T01:27:41;14.80;;;8.25;;
55728;SDS011;41633;39.720;2.910;2023-12-20T01:30:07;11.50;;;5.72;;
55728;SDS011;41633;39.720;2.910;2023-12-20T01:32:37;10.77;;;5.47;;
55728;SDS011;41633;39.720;2.910;2023-12-20T01:35:05;9.68;;;4.35;;
55728;SDS011;41633;39.720;2.910;2023-12-20T01:37:33;9.30;;;4.18;;
55728;SDS011;41633;39.720;2.910;2023-12-20T01:39:59;8.70;;;3.90;;
55728;SDS011;41633;39.720;2.910;2023-12-20T01:42:25;8.80;;;3.97;;
55728;SDS011;41633;39.720;2.910;2023-12-20T01:44:52;8.60;;;3.55;;
55728;SDS011;41633;39.720;2.910;2023-12-20T01:47:19;8.38;;;3.72;;
55728;SDS011;41633;39.720;2.910;2023-12-20T01:49:47;8.45;;;3.70;;
55728;SDS011;41633;39.720;2.910;2023-12-20T01:52:15;8.80;;;3.70;;
55728;SDS011;41633;39.720;2.910;2023-12-20T01:54:48;9.45;;;3.95;;
55728;SDS011;41633;39.720;2.910;2023-12-20T01:57:15;7.72;;;3.08;;
55728;SDS011;41633;39.720;2.910;2023-12-20T01:59:44;6.18;;;2.35;;
55728;SDS011;41633;39.720;2.910;2023-12-20T02:02:12;6.25;;;2.70;;
55728;SDS011;41633;39.720;2.910;2023-12-20T02:04:39;7.28;;;2.60;;
55728;SDS011;41633;39.720;2.910;2023-12-20T02:07:05;6.07;;;2.22;;
55728;SDS011;41633;39.720;2.910;2023-12-20T02:09:33;7.78;;;2.50;;
55728;SDS011;41633;39.720;2.910;2023-12-20T02:11:59;6.28;;;2.28;;
55728;SDS011;41633;39.720;2.910;2023-12-20T02:16:54;6.30;;;2.38;;
55728;SDS011;41633;39.720;2.910;2023-12-20T02:19:20;5.97;;;2.22;;
55728;SDS011;41633;39.720;2.910;2023-12-20T02:21:48;7.05;;;2.60;;
55728;SDS011;41633;39.720;2.910;2023-12-20T02:24:14;6.18;;;2.30;;
55728;SDS011;41633;39.720;2.910;2023-12-20T02:26:40;6.63;;;2.40;;
55728;SDS011;41633;39.720;2.910;2023-12-20T02:29:07;7.20;;;2.03;;
55728;SDS011;41633;39.720;2.910;2023-12-20T02:31:35;5.35;;;1.92;;
55728;SDS011;41633;39.720;2.910;2023-12-20T02:34:02;5.25;;;2.10;;
55728;SDS011;41633;39.720;2.910;2023-12-20T02:36:28;5.28;;;1.95;;
55728;SDS011;41633;39.720;2.910;2023-12-20T02:38:54;7.68;;;1.80;;
55728;SDS011;41633;39.720;2.910;2023-12-20T02:41:21;6.72;;;2.20;;
55728;SDS011;41633;39.720;2.910;2023-12-20T02:43:47;5.35;;;2.10;;
55728;SDS011;41633;39.720;2.910;2023-12-20T02:48:41;5.93;;;2.20;;
55728;SDS011;41633;39.720;2.910;2023-12-20T02:51:07;6.18;;;2.28;;
55728;SDS011;41633;39.720;2.910;2023-12-20T02:53:35;6.22;;;2.30;;
55728;SDS011;41633;39.720;2.910;2023-12-20T02:56:01;7.10;;;2.30;;
55728;SDS011;41633;39.720;2.910;2023-12-20T02:58:27;6.95;;;2.20;;
55728;SDS011;41633;39.720;2.910;2023-12-20T03:00:54;7.03;;;2.80;;
55728;SDS011;41633;39.720;2.910;2023-12-20T03:03:20;6.93;;;2.50;;
55728;SDS011;41633;39.720;2.910;2023-12-20T03:05:48;7.03;;;2.72;;
55728;SDS011;41633;39.720;2.910;2023-12-20T03:08:15;7.35;;;2.47;;
55728;SDS011;41633;39.720;2.910;2023-12-20T03:10:41;7.13;;;2.55;;
55728;SDS011;41633;39.720;2.910;2023-12-20T03:13:09;5.45;;;2.00;;
55728;SDS011;41633;39.720;2.910;2023-12-20T03:15:36;5.63;;;1.85;;
55728;SDS011;41633;39.720;2.910;2023-12-20T03:18:04;7.40;;;2.08;;
55728;SDS011;41633;39.720;2.910;2023-12-20T03:20:30;6.35;;;2.17;;
55728;SDS011;41633;39.720;2.910;2023-12-20T03:23:00;4.70;;;1.85;;
55728;SDS011;41633;39.720;2.910;2023-12-20T03:25:26;5.75;;;1.90;;
55728;SDS011;41633;39.720;2.910;2023-12-20T03:27:53;6.72;;;2.17;;
55728;SDS011;41633;39.720;2.910;2023-12-20T03:30:21;6.00;;;2.10;;
55728;SDS011;41633;39.720;2.910;2023-12-20T03:32:49;6.45;;;2.00;;
55728;SDS011;41633;39.720;2.910;2023-12-20T03:35:18;6.40;;;2.13;;
55728;SDS011;41633;39.720;2.910;2023-12-20T03:37:45;5.03;;;1.80;;
55728;SDS011;41633;39.720;2.910;2023-12-20T03:40:11;5.35;;;1.90;;
55728;SDS011;41633;39.720;2.910;2023-12-20T03:42:39;5.32;;;1.85;;
55728;SDS011;41633;39.720;2.910;2023-12-20T03:45:06;5.40;;;1.63;;
55728;SDS011;41633;39.720;2.910;2023-12-20T03:47:33;5.20;;;1.80;;
55728;SDS011;41633;39.720;2.910;2023-12-20T03:50:01;5.65;;;1.80;;
55728;SDS011;41633;39.720;2.910;2023-12-20T03:52:28;6.55;;;1.98;;
55728;SDS011;41633;39.720;2.910;2023-12-20T03:54:54;7.05;;;2.20;;
55728;SDS011;41633;39.720;2.910;2023-12-20T03:57:22;4.93;;;1.70;;
55728;SDS011;41633;39.720;2.910;2023-12-20T03:59:48;6.35;;;2.20;;
55728;SDS011;41633;39.720;2.910;2023-12-20T04:02:14;8.65;;;2.47;;
55728;SDS011;41633;39.720;2.910;2023-12-20T04:04:41;6.90;;;2.50;;
55728;SDS011;41633;39.720;2.910;2023-12-20T04:07:09;8.00;;;2.88;;
55728;SDS011;41633;39.720;2.910;2023-12-20T04:09:36;7.20;;;2.53;;
55728;SDS011;41633;39.720;2.910;2023-12-20T04:12:04;6.88;;;2.42;;
55728;SDS011;41633;39.720;2.910;2023-12-20T04:14:32;6.00;;;2.08;;
55728;SDS011;41633;39.720;2.910;2023-12-20T04:16:59;6.18;;;2.30;;
55728;SDS011;41633;39.720;2.910;2023-12-20T04:19:26;6.53;;;2.38;;
55728;SDS011;41633;39.720;2.910;2023-12-20T04:21:54;7.32;;;2.30;;
55728;SDS011;41633;39.720;2.910;2023-12-20T04:24:22;6.45;;;2.15;;
55728;SDS011;41633;39.720;2.910;2023-12-20T04:26:50;6.38;;;2.38;;
55728;SDS011;41633;39.720;2.910;2023-12-20T04:29:18;6.18;;;2.08;;
55728;SDS011;41633;39.720;2.910;2023-12-20T04:31:44;6.22;;;2.10;;
55728;SDS011;41633;39.720;2.910;2023-12-20T04:34:10;6.57;;;2.08;;
55728;SDS011;41633;39.720;2.910;2023-12-20T04:36:37;4.10;;;1.40;;
55728;SDS011;41633;39.720;2.910;2023-12-20T04:39:04;4.70;;;1.40;;
55728;SDS011;41633;39.720;2.910;2023-12-20T04:41:33;5.07;;;1.80;;
55728;SDS011;41633;39.720;2.910;2023-12-20T04:44:01;4.97;;;1.80;;
55728;SDS011;41633;39.720;2.910;2023-12-20T04:46:28;4.97;;;1.77;;
55728;SDS011;41633;39.720;2.910;2023-12-20T04:48:54;5.60;;;1.88;;
55728;SDS011;41633;39.720;2.910;2023-12-20T04:51:22;4.85;;;1.67;;
55728;SDS011;41633;39.720;2.910;2023-12-20T04:53:49;4.32;;;1.50;;
55728;SDS011;41633;39.720;2.910;2023-12-20T04:56:18;4.32;;;1.52;;
55728;SDS011;41633;39.720;2.910;2023-12-20T04:58:45;4.40;;;1.48;;
55728;SDS011;41633;39.720;2.910;2023-12-20T05:01:13;5.63;;;1.70;;
55728;SDS011;41633;39.720;2.910;2023-12-20T05:03:41;3.15;;;1.30;;
55728;SDS011;41633;39.720;2.910;2023-12-20T05:06:07;5.40;;;1.70;;
55728;SDS011;41633;39.720;2.910;2023-12-20T05:08:34;7.32;;;2.28;;
55728;SDS011;41633;39.720;2.910;2023-12-20T05:11:02;4.97;;;1.60;;
55728;SDS011;41633;39.720;2.910;2023-12-20T05:13:28;4.30;;;1.63;;
55728;SDS011;41633;39.720;2.910;2023-12-20T05:15:54;5.45;;;2.00;;
55728;SDS011;41633;39.720;2.910;2023-12-20T05:18:22;5.47;;;1.80;;
55728;SDS011;41633;39.720;2.910;2023-12-20T05:20:49;5.65;;;1.77;;
55728;SDS011;41633;39.720;2.910;2023-12-20T05:23:15;7.07;;;2.10;;
55728;SDS011;41633;39.720;2.910;2023-12-20T05:25:43;5.22;;;1.77;;
55728;SDS011;41633;39.720;2.910;2023-12-20T05:28:09;6.68;;;2.00;;
55728;SDS011;41633;39.720;2.910;2023-12-20T05:30:38;6.50;;;1.67;;
55728;SDS011;41633;39.720;2.910;2023-12-20T05:33:05;6.93;;;1.90;;
55728;SDS011;41633;39.720;2.910;2023-12-20T05:35:33;9.85;;;2.42;;
55728;SDS011;41633;39.720;2.910;2023-12-20T05:38:00;9.45;;;2.78;;
55728;SDS011;41633;39.720;2.910;2023-12-20T05:40:27;9.95;;;2.78;;
55728;SDS011;41633;39.720;2.910;2023-12-20T05:42:54;7.95;;;2.78;;
55728;SDS011;41633;39.720;2.910;2023-12-20T05:45:20;6.78;;;2.13;;
55728;SDS011;41633;39.720;2.910;2023-12-20T05:47:46;9.85;;;2.20;;
55728;SDS011;41633;39.720;2.910;2023-12-20T05:50:13;6.20;;;2.00;;
55728;SDS011;41633;39.720;2.910;2023-12-20T05:52:39;6.05;;;2.13;;
55728;SDS011;41633;39.720;2.910;2023-12-20T05:55:06;7.35;;;1.80;;
55728;SDS011;41633;39.720;2.910;2023-12-20T05:57:33;5.85;;;1.83;;
55728;SDS011;41633;39.720;2.910;2023-12-20T06:00:00;8.02;;;2.88;;
55728;SDS011;41633;39.720;2.910;2023-12-20T06:02:27;8.48;;;2.92;;
55728;SDS011;41633;39.720;2.910;2023-12-20T06:04:54;8.63;;;3.33;;
55728;SDS011;41633;39.720;2.910;2023-12-20T06:07:21;8.20;;;2.60;;
55728;SDS011;41633;39.720;2.910;2023-12-20T06:09:49;8.93;;;2.85;;
55728;SDS011;41633;39.720;2.910;2023-12-20T06:12:17;10.13;;;2.92;;
55728;SDS011;41633;39.720;2.910;2023-12-20T06:14:43;7.13;;;2.38;;
55728;SDS011;41633;39.720;2.910;2023-12-20T06:17:11;13.73;;;5.45;;
55728;SDS011;41633;39.720;2.910;2023-12-20T06:19:38;11.25;;;4.90;;
55728;SDS011;41633;39.720;2.910;2023-12-20T06:22:05;10.27;;;4.07;;
55728;SDS011;41633;39.720;2.910;2023-12-20T06:24:32;9.65;;;3.50;;
55728;SDS011;41633;39.720;2.910;2023-12-20T06:27:00;8.77;;;3.38;;
55728;SDS011;41633;39.720;2.910;2023-12-20T06:29:26;11.23;;;3.30;;
55728;SDS011;41633;39.720;2.910;2023-12-20T06:31:55;9.35;;;3.50;;
55728;SDS011;41633;39.720;2.910;2023-12-20T06:34:22;8.55;;;3.50;;
55728;SDS011;41633;39.720;2.910;2023-12-20T06:36:49;7.88;;;3.35;;
55728;SDS011;41633;39.720;2.910;2023-12-20T06:39:15;8.57;;;3.35;;
55728;SDS011;41633;39.720;2.910;2023-12-20T06:41:43;7.97;;;3.00;;
55728;SDS011;41633;39.720;2.910;2023-12-20T06:44:10;10.60;;;2.97;;
55728;SDS011;41633;39.720;2.910;2023-12-20T06:46:39;6.88;;;2.53;;
55728;SDS011;41633;39.720;2.910;2023-12-20T06:49:05;7.00;;;2.67;;
55728;SDS011;41633;39.720;2.910;2023-12-20T06:51:32;7.18;;;2.70;;
55728;SDS011;41633;39.720;2.910;2023-12-20T06:53:58;8.65;;;2.70;;
55728;SDS011;41633;39.720;2.910;2023-12-20T06:56:26;9.15;;;4.07;;
55728;SDS011;41633;39.720;2.910;2023-12-20T06:58:54;11.05;;;5.28;;
55728;SDS011;41633;39.720;2.910;2023-12-20T07:01:20;14.13;;;5.97;;
55728;SDS011;41633;39.720;2.910;2023-12-20T07:03:49;11.75;;;5.15;;
55728;SDS011;41633;39.720;2.910;2023-12-20T07:06:15;13.88;;;5.40;;
55728;SDS011;41633;39.720;2.910;2023-12-20T07:08:44;11.50;;;5.70;;
55728;SDS011;41633;39.720;2.910;2023-12-20T07:11:11;10.25;;;4.43;;
55728;SDS011;41633;39.720;2.910;2023-12-20T07:13:38;12.85;;;5.05;;
55728;SDS011;41633;39.720;2.910;2023-12-20T07:16:06;10.32;;;4.43;;
55728;SDS011;41633;39.720;2.910;2023-12-20T07:18:34;10.07;;;3.58;;
55728;SDS011;41633;39.720;2.910;2023-12-20T07:21:01;8.85;;;3.53;;
55728;SDS011;41633;39.720;2.910;2023-12-20T07:23:28;8.20;;;3.08;;
55728;SDS011;41633;39.720;2.910;2023-12-20T07:25:55;9.13;;;3.22;;
55728;SDS011;41633;39.720;2.910;2023-12-20T07:28:21;7.97;;;3.00;;
55728;SDS011;41633;39.720;2.910;2023-12-20T07:30:49;11.52;;;3.40;;
55728;SDS011;41633;39.720;2.910;2023-12-20T07:33:18;8.60;;;3.45;;
55728;SDS011;41633;39.720;2.910;2023-12-20T07:35:47;9.55;;;3.50;;
55728;SDS011;41633;39.720;2.910;2023-12-20T07:38:13;11.32;;;4.05;;
55728;SDS011;41633;39.720;2.910;2023-12-20T07:40:41;9.10;;;3.40;;
55728;SDS011;41633;39.720;2.910;2023-12-20T07:43:08;10.80;;;3.08;;
55728;SDS011;41633;39.720;2.910;2023-12-20T07:45:36;8.13;;;3.10;;
55728;SDS011;41633;39.720;2.910;2023-12-20T07:48:05;9.00;;;2.80;;
55728;SDS011;41633;39.720;2.910;2023-12-20T07:50:32;8.13;;;3.15;;
55728;SDS011;41633;39.720;2.910;2023-12-20T07:53:00;7.93;;;2.90;;
55728;SDS011;41633;39.720;2.910;2023-12-20T07:55:28;8.45;;;2.88;;
55728;SDS011;41633;39.720;2.910;2023-12-20T07:57:57;9.07;;;2.75;;
55728;SDS011;41633;39.720;2.910;2023-12-20T08:00:23;9.88;;;3.08;;
55728;SDS011;41633;39.720;2.910;2023-12-20T08:02:49;10.90;;;3.80;;
55728;SDS011;41633;39.720;2.910;2023-12-20T08:05:16;8.45;;;3.13;;
55728;SDS011;41633;39.720;2.910;2023-12-20T08:07:45;7.22;;;2.70;;
55728;SDS011;41633;39.720;2.910;2023-12-20T08:10:13;8.65;;;2.70;;
55728;SDS011;41633;39.720;2.910;2023-12-20T08:12:40;7.80;;;2.60;;
55728;SDS011;41633;39.720;2.910;2023-12-20T08:15:07;8.27;;;3.10;;
55728;SDS011;41633;39.720;2.910;2023-12-20T08:17:34;6.63;;;2.72;;
55728;SDS011;41633;39.720;2.910;2023-12-20T08:20:01;8.50;;;3.08;;
55728;SDS011;41633;39.720;2.910;2023-12-20T08:22:27;9.80;;;3.40;;
55728;SDS011;41633;39.720;2.910;2023-12-20T08:24:54;10.13;;;3.40;;
55728;SDS011;41633;39.720;2.910;2023-12-20T08:27:20;12.38;;;4.43;;
55728;SDS011;41633;39.720;2.910;2023-12-20T08:29:49;10.38;;;4.03;;
55728;SDS011;41633;39.720;2.910;2023-12-20T08:32:15;16.27;;;4.88;;
55728;SDS011;41633;39.720;2.910;2023-12-20T08:34:43;13.10;;;5.93;;
55728;SDS011;41633;39.720;2.910;2023-12-20T08:37:11;12.55;;;5.60;;
55728;SDS011;41633;39.720;2.910;2023-12-20T08:39:41;11.10;;;4.55;;
55728;SDS011;41633;39.720;2.910;2023-12-20T08:42:09;9.25;;;3.88;;
55728;SDS011;41633;39.720;2.910;2023-12-20T08:44:36;10.93;;;3.70;;
55728;SDS011;41633;39.720;2.910;2023-12-20T08:49:31;10.32;;;3.63;;
55728;SDS011;41633;39.720;2.910;2023-12-20T08:51:57;11.40;;;3.40;;
55728;SDS011;41633;39.720;2.910;2023-12-20T08:54:25;9.60;;;3.42;;
55728;SDS011;41633;39.720;2.910;2023-12-20T08:56:52;9.27;;;3.20;;
55728;SDS011;41633;39.720;2.910;2023-12-20T09:04:14;9.27;;;3.75;;
55728;SDS011;41633;39.720;2.910;2023-12-20T09:06:40;10.13;;;3.65;;
55728;SDS011;41633;39.720;2.910;2023-12-20T09:11:35;8.32;;;3.10;;
55728;SDS011;41633;39.720;2.910;2023-12-20T09:14:01;10.20;;;4.53;;
55728;SDS011;41633;39.720;2.910;2023-12-20T09:16:29;13.07;;;4.80;;
55728;SDS011;41633;39.720;2.910;2023-12-20T09:18:56;10.88;;;5.07;;
55728;SDS011;41633;39.720;2.910;2023-12-20T09:21:24;13.20;;;5.40;;
55728;SDS011;41633;39.720;2.910;2023-12-20T09:23:50;12.73;;;6.03;;
55728;SDS011;41633;39.720;2.910;2023-12-20T09:28:44;21.98;;;12.15;;
55728;SDS011;41633;39.720;2.910;2023-12-20T09:31:10;21.73;;;13.43;;
55728;SDS011;41633;39.720;2.910;2023-12-20T09:33:39;19.08;;;10.23;;
55728;SDS011;41633;39.720;2.910;2023-12-20T09:36:07;14.05;;;7.70;;
55728;SDS011;41633;39.720;2.910;2023-12-20T09:38:34;12.65;;;5.20;;
55728;SDS011;41633;39.720;2.910;2023-12-20T09:41:02;13.18;;;5.57;;
55728;SDS011;41633;39.720;2.910;2023-12-20T09:43:32;14.75;;;6.32;;
55728;SDS011;41633;39.720;2.910;2023-12-20T09:46:02;15.65;;;8.30;;
55728;SDS011;41633;39.720;2.910;2023-12-20T09:48:32;17.63;;;10.13;;
55728;SDS011;41633;39.720;2.910;2023-12-20T09:51:00;19.08;;;8.75;;
55728;SDS011;41633;39.720;2.910;2023-12-20T09:53:28;18.65;;;9.80;;
55728;SDS011;41633;39.720;2.910;2023-12-20T09:55:59;15.57;;;7.63;;
55728;SDS011;41633;39.720;2.910;2023-12-20T09:58:27;15.90;;;6.93;;
55728;SDS011;41633;39.720;2.910;2023-12-20T10:00:54;14.85;;;5.47;;
55728;SDS011;41633;39.720;2.910;2023-12-20T10:03:25;12.02;;;4.57;;
55728;SDS011;41633;39.720;2.910;2023-12-20T10:05:53;16.42;;;4.63;;
55728;SDS011;41633;39.720;2.910;2023-12-20T10:08:21;14.80;;;4.80;;
55728;SDS011;41633;39.720;2.910;2023-12-20T10:10:49;15.70;;;5.13;;
55728;SDS011;41633;39.720;2.910;2023-12-20T10:13:15;14.77;;;5.35;;
55728;SDS011;41633;39.720;2.910;2023-12-20T10:15:42;13.73;;;5.70;;
55728;SDS011;41633;39.720;2.910;2023-12-20T10:18:08;14.40;;;5.68;;
55728;SDS011;41633;39.720;2.910;2023-12-20T10:20:36;15.77;;;6.15;;
55728;SDS011;41633;39.720;2.910;2023-12-20T10:23:02;13.80;;;6.53;;
55728;SDS011;41633;39.720;2.910;2023-12-20T10:25:30;12.80;;;6.50;;
55728;SDS011;41633;39.720;2.910;2023-12-20T10:28:14;12.88;;;6.05;;
55728;SDS011;41633;39.720;2.910;2023-12-20T10:30:45;12.95;;;5.13;;
55728;SDS011;41633;39.720;2.910;2023-12-20T10:33:11;13.43;;;4.70;;
55728;SDS011;41633;39.720;2.910;2023-12-20T10:35:39;13.07;;;4.35;;
55728;SDS011;41633;39.720;2.910;2023-12-20T10:38:06;12.43;;;6.13;;
55728;SDS011;41633;39.720;2.910;2023-12-20T10:40:37;11.70;;;4.20;;
55728;SDS011;41633;39.720;2.910;2023-12-20T10:43:03;10.38;;;3.28;;
55728;SDS011;41633;39.720;2.910;2023-12-20T10:45:32;13.85;;;4.80;;
55728;SDS011;41633;39.720;2.910;2023-12-20T10:47:59;13.18;;;3.50;;
55728;SDS011;41633;39.720;2.910;2023-12-20T10:50:27;10.80;;;3.70;;
55728;SDS011;41633;39.720;2.910;2023-12-20T10:52:55;12.52;;;4.90;;
55728;SDS011;41633;39.720;2.910;2023-12-20T10:55:23;15.25;;;5.80;;
55728;SDS011;41633;39.720;2.910;2023-12-20T10:57:51;15.15;;;6.18;;
55728;SDS011;41633;39.720;2.910;2023-12-20T11:00:18;16.50;;;7.32;;
55728;SDS011;41633;39.720;2.910;2023-12-20T11:02:46;15.02;;;6.35;;
55728;SDS011;41633;39.720;2.910;2023-12-20T11:07:54;12.70;;;5.40;;
55728;SDS011;41633;39.720;2.910;2023-12-20T11:10:25;11.25;;;5.40;;
55728;SDS011;41633;39.720;2.910;2023-12-20T11:12:53;17.30;;;5.13;;
55728;SDS011;41633;39.720;2.910;2023-12-20T11:15:21;13.75;;;5.75;;
55728;SDS011;41633;39.720;2.910;2023-12-20T11:17:57;14.63;;;6.68;;
55728;SDS011;41633;39.720;2.910;2023-12-20T11:20:34;14.05;;;5.95;;
55728;SDS011;41633;39.720;2.910;2023-12-20T11:23:02;13.90;;;6.57;;
55728;SDS011;41633;39.720;2.910;2023-12-20T11:25:30;12.95;;;4.90;;
55728;SDS011;41633;39.720;2.910;2023-12-20T11:28:07;9.57;;;3.47;;
55728;SDS011;41633;39.720;2.910;2023-12-20T11:31:07;7.10;;;2.70;;
55728;SDS011;41633;39.720;2.910;2023-12-20T11:33:32;12.68;;;3.30;;
55728;SDS011;41633;39.720;2.910;2023-12-20T11:36:14;11.90;;;3.40;;
55728;SDS011;41633;39.720;2.910;2023-12-20T11:38:54;10.82;;;4.00;;
55728;SDS011;41633;39.720;2.910;2023-12-20T11:41:23;9.90;;;4.38;;
55728;SDS011;41633;39.720;2.910;2023-12-20T11:43:53;11.23;;;3.92;;
55728;SDS011;41633;39.720;2.910;2023-12-20T11:46:21;8.60;;;3.22;;
55728;SDS011;41633;39.720;2.910;2023-12-20T11:48:49;10.02;;;3.38;;
55728;SDS011;41633;39.720;2.910;2023-12-20T11:51:17;10.68;;;3.30;;
55728;SDS011;41633;39.720;2.910;2023-12-20T11:53:45;7.88;;;2.80;;
55728;SDS011;41633;39.720;2.910;2023-12-20T11:56:12;8.25;;;2.50;;
55728;SDS011;41633;39.720;2.910;2023-12-20T11:58:38;9.45;;;3.60;;
55728;SDS011;41633;39.720;2.910;2023-12-20T12:01:04;9.73;;;3.42;;
55728;SDS011;41633;39.720;2.910;2023-12-20T12:03:33;9.05;;;3.60;;
55728;SDS011;41633;39.720;2.910;2023-12-20T12:06:01;8.02;;;3.30;;
55728;SDS011;41633;39.720;2.910;2023-12-20T12:08:35;9.57;;;3.90;;
55728;SDS011;41633;39.720;2.910;2023-12-20T12:11:03;8.38;;;3.42;;
55728;SDS011;41633;39.720;2.910;2023-12-20T12:13:31;9.38;;;3.95;;
55728;SDS011;41633;39.720;2.910;2023-12-20T12:15:57;10.82;;;4.00;;
55728;SDS011;41633;39.720;2.910;2023-12-20T12:18:25;12.13;;;5.20;;
55728;SDS011;41633;39.720;2.910;2023-12-20T12:20:59;9.85;;;4.07;;
55728;SDS011;41633;39.720;2.910;2023-12-20T12:23:27;8.63;;;3.15;;
55728;SDS011;41633;39.720;2.910;2023-12-20T12:25:54;9.07;;;3.30;;
55728;SDS011;41633;39.720;2.910;2023-12-20T12:28:20;9.27;;;3.80;;
55728;SDS011;41633;39.720;2.910;2023-12-20T12:30:57;9.60;;;3.33;;
55728;SDS011;41633;39.720;2.910;2023-12-20T12:33:24;7.90;;;2.70;;
55728;SDS011;41633;39.720;2.910;2023-12-20T12:35:51;10.25;;;3.33;;
55728;SDS011;41633;39.720;2.910;2023-12-20T12:38:22;7.10;;;2.47;;
55728;SDS011;41633;39.720;2.910;2023-12-20T12:40:49;7.47;;;2.60;;
55728;SDS011;41633;39.720;2.910;2023-12-20T12:43:18;8.27;;;3.10;;
55728;SDS011;41633;39.720;2.910;2023-12-20T12:45:49;9.48;;;3.08;;
55728;SDS011;41633;39.720;2.910;2023-12-20T12:48:18;9.93;;;3.13;;
55728;SDS011;41633;39.720;2.910;2023-12-20T12:50:45;11.45;;;3.30;;
55728;SDS011;41633;39.720;2.910;2023-12-20T12:53:13;8.18;;;3.30;;
55728;SDS011;41633;39.720;2.910;2023-12-20T12:55:39;12.55;;;3.17;;
55728;SDS011;41633;39.720;2.910;2023-12-20T12:58:08;8.05;;;2.80;;
55728;SDS011;41633;39.720;2.910;2023-12-20T13:00:36;8.55;;;2.88;;
55728;SDS011;41633;39.720;2.910;2023-12-20T13:03:03;7.60;;;2.28;;
55728;SDS011;41633;39.720;2.910;2023-12-20T13:05:33;8.00;;;2.80;;
55728;SDS011;41633;39.720;2.910;2023-12-20T13:08:01;8.02;;;2.60;;
55728;SDS011;41633;39.720;2.910;2023-12-20T13:10:30;7.28;;;2.60;;
55728;SDS011;41633;39.720;2.910;2023-12-20T13:12:57;8.57;;;2.50;;
55728;SDS011;41633;39.720;2.910;2023-12-20T13:15:24;8.68;;;2.40;;
55728;SDS011;41633;39.720;2.910;2023-12-20T13:17:52;7.20;;;2.33;;
55728;SDS011;41633;39.720;2.910;2023-12-20T13:20:19;7.07;;;2.45;;
55728;SDS011;41633;39.720;2.910;2023-12-20T13:22:47;9.57;;;3.08;;
55728;SDS011;41633;39.720;2.910;2023-12-20T13:25:14;8.68;;;2.97;;
55728;SDS011;41633;39.720;2.910;2023-12-20T13:27:43;9.75;;;3.35;;
55728;SDS011;41633;39.720;2.910;2023-12-20T13:30:12;7.97;;;3.00;;
55728;SDS011;41633;39.720;2.910;2023-12-20T13:32:40;8.25;;;3.42;;
55728;SDS011;41633;39.720;2.910;2023-12-20T13:35:07;8.98;;;3.20;;
55728;SDS011;41633;39.720;2.910;2023-12-20T13:37:34;9.57;;;2.67;;
55728;SDS011;41633;39.720;2.910;2023-12-20T13:40:02;8.10;;;2.40;;
55728;SDS011;41633;39.720;2.910;2023-12-20T13:42:29;8.75;;;2.35;;
55728;SDS011;41633;39.720;2.910;2023-12-20T13:44:55;8.85;;;2.70;;
55728;SDS011;41633;39.720;2.910;2023-12-20T13:47:22;41.53;;;37.25;;
55728;SDS011;41633;39.720;2.910;2023-12-20T13:49:49;48.67;;;43.00;;
55728;SDS011;41633;39.720;2.910;2023-12-20T13:52:16;38.08;;;34.28;;
55728;SDS011;41633;39.720;2.910;2023-12-20T13:54:45;11.10;;;4.72;;
55728;SDS011;41633;39.720;2.910;2023-12-20T13:57:14;10.02;;;4.25;;
55728;SDS011;41633;39.720;2.910;2023-12-20T13:59:41;7.95;;;3.20;;
55728;SDS011;41633;39.720;2.910;2023-12-20T14:02:08;8.38;;;3.03;;
55728;SDS011;41633;39.720;2.910;2023-12-20T14:04:37;11.68;;;3.78;;
55728;SDS011;41633;39.720;2.910;2023-12-20T14:07:05;8.10;;;2.60;;
55728;SDS011;41633;39.720;2.910;2023-12-20T14:09:34;10.35;;;4.35;;
55728;SDS011;41633;39.720;2.910;2023-12-20T14:12:00;8.23;;;3.55;;
55728;SDS011;41633;39.720;2.910;2023-12-20T14:14:29;11.65;;;4.93;;
55728;SDS011;41633;39.720;2.910;2023-12-20T14:16:55;11.10;;;5.07;;
55728;SDS011;41633;39.720;2.910;2023-12-20T14:19:22;9.07;;;2.83;;
55728;SDS011;41633;39.720;2.910;2023-12-20T14:21:49;8.98;;;2.13;;
55728;SDS011;41633;39.720;2.910;2023-12-20T14:24:17;11.93;;;5.60;;
55728;SDS011;41633;39.720;2.910;2023-12-20T14:26:45;8.68;;;2.80;;
55728;SDS011;41633;39.720;2.910;2023-12-20T14:29:11;12.55;;;3.40;;
55728;SDS011;41633;39.720;2.910;2023-12-20T14:31:38;20.38;;;13.63;;
55728;SDS011;41633;39.720;2.910;2023-12-20T14:34:07;12.60;;;5.15;;
55728;SDS011;41633;39.720;2.910;2023-12-20T14:36:34;11.40;;;3.67;;
55728;SDS011;41633;39.720;2.910;2023-12-20T14:39:00;11.75;;;5.15;;
55728;SDS011;41633;39.720;2.910;2023-12-20T14:41:27;15.82;;;9.75;;
55728;SDS011;41633;39.720;2.910;2023-12-20T14:43:55;52.88;;;45.90;;
55728;SDS011;41633;39.720;2.910;2023-12-20T14:46:21;105.70;;;82.00;;
55728;SDS011;41633;39.720;2.910;2023-12-20T14:48:48;180.43;;;152.73;;
55728;SDS011;41633;39.720;2.910;2023-12-20T14:51:15;72.63;;;53.92;;
55728;SDS011;41633;39.720;2.910;2023-12-20T14:53:42;39.53;;;30.73;;
55728;SDS011;41633;39.720;2.910;2023-12-20T14:56:10;20.70;;;14.02;;
55728;SDS011;41633;39.720;2.910;2023-12-20T14:58:37;59.38;;;52.58;;
55728;SDS011;41633;39.720;2.910;2023-12-20T15:01:05;37.67;;;29.02;;
55728;SDS011;41633;39.720;2.910;2023-12-20T15:03:34;17.25;;;10.95;;